Time;durP1;ratioP1;P1;durP2;ratioP2;P2;SDS_P1;SDS_P2;PMS_P1;PMS_P2;Temp;Humidity;BMP_temperature;BMP_pressure;BME280_temperature;BME280_humidity;BME280_pressure;Samples;Min_cycle;Max_cycle;Signal;HPM_P1;HPM_P2
2021/07/30 00:02:41;;;;;;;8.47;5.20;;;14.60;99.90;;;;;;5138154;27;20203;-66
2021/07/30 00:05:30;;;;;;;9.43;5.57;;;14.60;99.90;;;;;;5132302;27;20208;-66
2021/07/30 00:08:18;;;;;;;8.63;4.93;;;14.60;99.90;;;;;;5133671;27;20236;-66
2021/07/30 00:11:05;;;;;;;10.47;5.30;;;14.60;99.90;;;;;;5145484;27;20244;-65
2021/07/30 00:13:53;;;;;;;10.83;5.43;;;14.60;99.90;;;;;;5149597;27;20267;-66
2021/07/30 00:16:40;;;;;;;10.43;5.37;;;14.60;99.90;;;;;;5135952;27;20196;-66
2021/07/30 00:19:28;;;;;;;11.73;5.67;;;14.60;99.90;;;;;;5133618;27;20225;-66
2021/07/30 00:22:17;;;;;;;10.53;5.53;;;14.50;99.90;;;;;;5144874;27;20194;-66
2021/07/30 00:25:05;;;;;;;10.03;5.33;;;14.50;99.90;;;;;;5132650;27;20223;-66
2021/07/30 00:27:52;;;;;;;13.63;5.90;;;14.50;99.90;;;;;;5137003;27;20371;-66
2021/07/30 00:30:40;;;;;;;12.03;5.40;;;14.50;99.90;;;;;;5141768;27;20201;-66
2021/07/30 00:33:28;;;;;;;11.37;5.00;;;14.40;99.90;;;;;;5138498;27;20213;-65
2021/07/30 00:36:15;;;;;;;13.30;5.10;;;14.50;99.90;;;;;;5140547;27;20605;-66
2021/07/30 00:39:04;;;;;;;11.93;5.03;;;14.40;99.90;;;;;;5139895;27;20200;-66
2021/07/30 00:41:52;;;;;;;9.77;4.93;;;14.40;99.90;;;;;;5140830;27;20198;-66
2021/07/30 00:44:39;;;;;;;11.77;5.47;;;14.40;99.90;;;;;;5138707;27;20201;-66
2021/07/30 00:47:27;;;;;;;11.33;5.07;;;14.30;99.90;;;;;;5149176;27;20231;-66
2021/07/30 00:50:15;;;;;;;10.50;5.00;;;14.30;99.90;;;;;;5140517;27;20819;-66
2021/07/30 00:53:02;;;;;;;11.47;5.30;;;14.30;99.90;;;;;;5140326;27;20216;-65
2021/07/30 00:55:51;;;;;;;9.60;5.40;;;14.30;99.90;;;;;;5140628;27;20194;-66
2021/07/30 00:58:39;;;;;;;12.50;5.30;;;14.30;99.90;;;;;;5136348;27;20734;-66
2021/07/30 01:01:27;;;;;;;9.43;5.60;;;14.30;99.90;;;;;;5131254;27;20205;-66
2021/07/30 01:04:14;;;;;;;12.30;5.40;;;14.40;99.90;;;;;;5140305;27;20644;-66
2021/07/30 01:07:02;;;;;;;11.40;5.30;;;14.30;99.90;;;;;;5149444;27;20200;-65
2021/07/30 01:09:50;;;;;;;11.43;5.83;;;14.30;99.90;;;;;;5137219;27;20204;-65
2021/07/30 01:12:39;;;;;;;10.80;5.87;;;14.30;99.90;;;;;;5140468;27;20719;-66
2021/07/30 01:15:26;;;;;;;11.87;5.67;;;14.40;99.90;;;;;;5151180;27;20629;-66
2021/07/30 01:18:14;;;;;;;11.97;5.70;;;14.30;99.90;;;;;;5144488;27;20213;-66
2021/07/30 01:21:07;;;;;;;11.07;6.03;;;14.30;99.90;;;;;;5148129;27;20204;-66
2021/07/30 01:23:58;;;;;;;10.57;6.33;;;14.30;99.90;;;;;;5144284;27;20194;-66
2021/07/30 01:26:46;;;;;;;13.53;5.90;;;14.20;99.90;;;;;;5134988;27;20191;-66
2021/07/30 01:29:34;;;;;;;16.13;6.10;;;14.30;99.90;;;;;;5134201;27;20652;-66
2021/07/30 01:32:21;;;;;;;14.33;6.37;;;14.30;99.90;;;;;;5133962;27;20218;-66
2021/07/30 01:35:09;;;;;;;10.33;6.07;;;14.30;99.90;;;;;;5134103;27;20207;-65
2021/07/30 01:37:57;;;;;;;11.93;6.03;;;14.30;99.90;;;;;;5134578;27;20199;-66
2021/07/30 01:40:46;;;;;;;8.83;6.17;;;14.30;99.90;;;;;;5134425;27;20209;-65
2021/07/30 01:43:33;;;;;;;9.27;5.77;;;14.30;99.90;;;;;;5134443;27;20210;-65
2021/07/30 01:46:21;;;;;;;12.60;6.27;;;14.30;99.90;;;;;;5150325;27;20220;-65
2021/07/30 01:49:08;;;;;;;11.70;6.70;;;14.20;99.90;;;;;;5147172;27;20213;-66
2021/07/30 01:51:56;;;;;;;14.37;6.77;;;14.30;99.90;;;;;;5136647;27;20216;-65
2021/07/30 01:54:44;;;;;;;16.57;6.60;;;14.20;99.90;;;;;;5142472;27;20201;-65
2021/07/30 01:57:32;;;;;;;16.27;6.80;;;14.30;99.90;;;;;;5144020;27;20240;-65
2021/07/30 02:00:20;;;;;;;12.43;6.60;;;14.30;99.90;;;;;;5147933;27;20636;-65
2021/07/30 02:03:08;;;;;;;12.97;6.47;;;14.30;99.90;;;;;;5135993;27;20277;-65
2021/07/30 02:05:55;;;;;;;11.33;6.43;;;14.20;99.90;;;;;;5147519;27;20232;-65
2021/07/30 02:08:43;;;;;;;17.97;6.90;;;14.20;99.90;;;;;;5143325;27;20673;-65
2021/07/30 02:11:31;;;;;;;14.23;6.20;;;14.20;99.90;;;;;;5149474;27;20193;-65
2021/07/30 02:14:20;;;;;;;10.07;6.10;;;14.20;99.90;;;;;;5136795;27;20975;-65
2021/07/30 02:17:07;;;;;;;10.87;6.17;;;14.20;99.90;;;;;;5143437;27;20720;-65
2021/07/30 02:19:55;;;;;;;16.53;6.30;;;14.20;99.90;;;;;;5144999;27;20673;-65
2021/07/30 02:22:42;;;;;;;15.07;6.80;;;14.10;99.90;;;;;;5138270;27;20200;-65
2021/07/30 02:25:30;;;;;;;11.07;6.70;;;14.10;99.90;;;;;;5134901;27;20280;-65
2021/07/30 02:28:17;;;;;;;11.87;6.53;;;14.10;99.90;;;;;;5146229;27;20651;-65
2021/07/30 02:31:06;;;;;;;16.83;7.00;;;14.10;99.90;;;;;;5137089;27;20649;-66
2021/07/30 02:33:54;;;;;;;12.37;6.57;;;14.10;99.90;;;;;;5146297;27;20202;-66
2021/07/30 02:36:41;;;;;;;13.10;6.30;;;14.10;99.90;;;;;;5136358;27;20210;-65
2021/07/30 02:39:29;;;;;;;17.03;7.13;;;14.10;99.90;;;;;;5137150;27;20199;-65
2021/07/30 02:42:16;;;;;;;16.10;6.77;;;14.10;99.90;;;;;;5136058;27;20202;-66
2021/07/30 02:45:05;;;;;;;11.87;6.77;;;14.10;99.90;;;;;;5137991;27;20203;-66
2021/07/30 02:47:54;;;;;;;13.93;7.13;;;14.10;99.90;;;;;;5150972;27;20208;-66
2021/07/30 02:50:41;;;;;;;16.17;7.70;;;14.10;99.90;;;;;;5136025;27;20568;-66
2021/07/30 02:53:29;;;;;;;17.13;7.47;;;14.10;99.90;;;;;;5133196;27;20218;-65
2021/07/30 02:56:16;;;;;;;13.10;6.83;;;14.00;99.90;;;;;;5146649;27;20652;-66
2021/07/30 02:59:04;;;;;;;14.03;6.53;;;14.10;99.90;;;;;;5149324;27;20227;-65
2021/07/30 03:01:51;;;;;;;16.43;8.20;;;14.10;99.90;;;;;;5143013;27;20200;-65
2021/07/30 03:04:40;;;;;;;15.43;7.87;;;14.00;99.90;;;;;;5132974;27;20223;-65
2021/07/30 03:07:28;;;;;;;16.23;7.97;;;14.00;99.90;;;;;;5133008;27;20208;-65
2021/07/30 03:10:16;;;;;;;13.20;6.97;;;14.00;99.90;;;;;;5149388;27;20197;-65
2021/07/30 03:13:03;;;;;;;19.90;8.17;;;14.00;99.90;;;;;;5151254;27;20220;-65
2021/07/30 03:15:54;;;;;;;19.30;8.40;;;14.00;99.90;;;;;;5151491;27;20721;-65
2021/07/30 03:18:44;;;;;;;13.70;7.50;;;13.90;99.90;;;;;;5152514;27;20565;-65
2021/07/30 03:21:33;;;;;;;13.40;7.30;;;13.90;99.90;;;;;;5132343;27;20219;-65
2021/07/30 03:24:20;;;;;;;18.63;7.90;;;13.90;99.90;;;;;;5132233;27;20252;-65
2021/07/30 03:27:08;;;;;;;17.10;7.37;;;14.00;99.90;;;;;;5131870;27;20208;-65
2021/07/30 03:29:55;;;;;;;14.73;7.07;;;14.00;99.90;;;;;;5132616;27;20204;-65
2021/07/30 03:32:43;;;;;;;14.50;7.20;;;14.00;99.90;;;;;;5133527;27;20218;-65
2021/07/30 03:35:31;;;;;;;14.47;7.67;;;14.00;99.90;;;;;;5132277;27;20210;-65
2021/07/30 03:38:20;;;;;;;18.73;7.27;;;14.00;99.90;;;;;;5132210;27;20701;-65
2021/07/30 03:41:07;;;;;;;16.87;7.57;;;14.10;99.90;;;;;;5131984;27;20234;-65
2021/07/30 03:43:55;;;;;;;16.27;7.03;;;14.20;99.90;;;;;;5132419;27;20201;-65
2021/07/30 03:46:42;;;;;;;11.37;6.30;;;14.20;99.90;;;;;;5145381;27;20581;-65
2021/07/30 03:49:30;;;;;;;13.20;6.63;;;14.30;99.90;;;;;;5153146;27;20196;-65
2021/07/30 03:52:18;;;;;;;14.03;6.47;;;14.30;99.90;;;;;;5143520;27;20221;-65
2021/07/30 03:55:08;;;;;;;11.97;6.33;;;14.40;99.90;;;;;;5132283;27;20980;-65
2021/07/30 03:57:56;;;;;;;14.10;6.60;;;14.50;99.90;;;;;;5142285;27;20224;-65
2021/07/30 04:00:43;;;;;;;14.13;6.50;;;14.50;99.90;;;;;;5152776;27;20286;-65
2021/07/30 04:03:31;;;;;;;11.53;6.13;;;14.60;99.90;;;;;;5153143;27;20194;-65
2021/07/30 04:06:18;;;;;;;13.70;6.50;;;14.70;99.90;;;;;;5152953;27;20202;-65
2021/07/30 04:09:06;;;;;;;13.70;6.53;;;14.80;99.90;;;;;;5134564;27;20224;-65
2021/07/30 04:11:55;;;;;;;12.03;6.20;;;14.80;99.90;;;;;;5131959;27;20202;-65
2021/07/30 04:14:42;;;;;;;12.67;6.10;;;14.90;99.90;;;;;;5131957;27;20209;-65
2021/07/30 04:17:30;;;;;;;11.50;6.63;;;15.00;99.90;;;;;;5135100;27;20640;-65
2021/07/30 04:20:18;;;;;;;9.77;6.17;;;15.10;99.90;;;;;;5141705;27;20209;-65
2021/07/30 04:23:05;;;;;;;15.37;5.90;;;15.20;99.90;;;;;;5131308;28;20205;-65
2021/07/30 04:25:53;;;;;;;10.83;5.50;;;15.30;99.90;;;;;;5132381;28;20205;-65
2021/07/30 04:28:42;;;;;;;10.00;5.37;;;15.40;99.90;;;;;;5132474;28;20202;-65
2021/07/30 04:31:29;;;;;;;15.47;5.63;;;15.50;99.90;;;;;;5143478;27;20202;-65
2021/07/30 04:34:17;;;;;;;8.77;5.00;;;15.70;99.90;;;;;;5152175;27;20213;-65
2021/07/30 04:37:05;;;;;;;15.63;6.23;;;15.80;99.90;;;;;;5152446;27;20915;-65
2021/07/30 04:39:52;;;;;;;13.03;5.63;;;15.90;99.90;;;;;;5151718;27;20248;-65
2021/07/30 04:42:40;;;;;;;9.13;5.43;;;16.00;99.90;;;;;;5152470;27;20204;-65
2021/07/30 04:45:29;;;;;;;11.53;5.77;;;16.10;99.90;;;;;;5140823;27;20205;-65
2021/07/30 04:48:16;;;;;;;13.20;5.50;;;16.30;99.90;;;;;;5151978;27;20278;-65
2021/07/30 04:51:04;;;;;;;9.37;5.50;;;16.50;99.90;;;;;;5154823;27;20652;-65
2021/07/30 04:53:51;;;;;;;10.93;5.87;;;16.60;99.90;;;;;;5156104;27;20214;-65
2021/07/30 04:56:39;;;;;;;9.47;5.40;;;16.70;99.90;;;;;;5156112;27;20216;-65
2021/07/30 04:59:26;;;;;;;7.70;5.30;;;16.90;99.90;;;;;;5135648;27;20233;-65
2021/07/30 05:02:15;;;;;;;9.40;5.53;;;17.10;99.90;;;;;;5153410;27;20201;-65
2021/07/30 05:05:03;;;;;;;7.50;5.00;;;17.30;99.90;;;;;;5156926;27;20678;-65
2021/07/30 05:07:50;;;;;;;9.80;5.20;;;17.50;99.90;;;;;;5155635;27;20200;-65
2021/07/30 05:10:38;;;;;;;11.07;5.77;;;17.60;99.90;;;;;;5145711;27;20201;-65
2021/07/30 05:13:26;;;;;;;9.70;5.40;;;17.80;99.90;;;;;;5135371;27;20226;-65
2021/07/30 05:16:14;;;;;;;9.57;5.40;;;18.00;99.90;;;;;;5139548;27;20562;-65
2021/07/30 05:19:03;;;;;;;21.00;5.37;;;18.10;99.90;;;;;;5133649;27;20566;-65
2021/07/30 05:21:51;;;;;;;16.23;6.00;;;18.40;99.90;;;;;;5136174;27;20204;-65
2021/07/30 05:24:38;;;;;;;12.00;6.07;;;18.50;99.90;;;;;;5136827;27;20333;-65
2021/07/30 05:27:26;;;;;;;23.40;6.57;;;18.70;99.90;;;;;;5135034;27;20203;-65
2021/07/30 05:30:14;;;;;;;22.90;6.50;;;18.80;99.90;;;;;;5154648;27;20226;-65
2021/07/30 05:33:01;;;;;;;27.33;6.73;;;19.00;99.90;;;;;;5155216;27;20675;-65
2021/07/30 05:35:50;;;;;;;19.30;6.30;;;19.10;99.90;;;;;;5154875;27;20714;-65
2021/07/30 05:38:38;;;;;;;19.43;6.20;;;19.30;99.90;;;;;;5154911;27;20285;-65
2021/07/30 05:41:25;;;;;;;18.90;6.17;;;19.40;99.90;;;;;;5153896;27;20564;-65
2021/07/30 05:44:14;;;;;;;15.43;6.40;;;19.60;99.90;;;;;;5152064;27;20211;-65
2021/07/30 05:47:03;;;;;;;13.93;5.70;;;19.70;99.90;;;;;;5134546;27;20214;-65
2021/07/30 05:49:50;;;;;;;18.67;6.30;;;19.80;99.90;;;;;;5135344;27;20236;-65
2021/07/30 05:52:39;;;;;;;15.53;6.30;;;20.00;99.90;;;;;;5134711;27;20642;-65
2021/07/30 05:55:27;;;;;;;16.03;6.20;;;20.10;99.90;;;;;;5143656;27;20193;-65
2021/07/30 05:58:15;;;;;;;17.57;6.47;;;20.20;99.90;;;;;;5148662;27;20234;-65
2021/07/30 06:01:02;;;;;;;17.20;6.13;;;20.30;99.90;;;;;;5143557;27;20554;-65
2021/07/30 06:03:51;;;;;;;14.07;6.27;;;20.40;99.90;;;;;;5139994;27;20191;-65
2021/07/30 06:06:38;;;;;;;12.57;6.53;;;20.60;99.90;;;;;;5140474;27;20194;-65
2021/07/30 06:09:27;;;;;;;15.37;6.40;;;20.60;99.90;;;;;;5141857;27;20202;-65
2021/07/30 06:12:15;;;;;;;14.13;7.30;;;20.70;99.90;;;;;;5142051;27;20237;-65
2021/07/30 06:15:02;;;;;;;18.93;8.07;;;20.70;99.90;;;;;;5138963;27;20198;-65
2021/07/30 06:17:50;;;;;;;14.77;7.93;;;20.80;99.90;;;;;;5133521;27;20198;-65
2021/07/30 06:20:38;;;;;;;16.90;7.47;;;20.90;99.90;;;;;;5143628;27;20221;-65
2021/07/30 06:23:26;;;;;;;19.43;7.40;;;21.00;99.90;;;;;;5145808;27;20522;-65
2021/07/30 06:26:15;;;;;;;15.63;7.73;;;21.20;99.90;;;;;;5153258;27;20280;-65
2021/07/30 06:29:02;;;;;;;13.87;6.70;;;21.20;99.90;;;;;;5152618;27;20201;-65
2021/07/30 06:31:50;;;;;;;16.30;7.33;;;21.30;99.90;;;;;;5154374;27;20201;-66
2021/07/30 06:34:37;;;;;;;14.13;7.27;;;21.30;99.90;;;;;;5153859;27;20576;-65
2021/07/30 06:37:25;;;;;;;14.93;7.13;;;21.50;99.90;;;;;;5154500;27;20636;-65
2021/07/30 06:40:14;;;;;;;17.97;7.20;;;21.50;99.90;;;;;;5154091;27;20215;-65
2021/07/30 06:43:03;;;;;;;15.23;7.90;;;21.60;99.90;;;;;;5153848;27;20198;-65
2021/07/30 06:45:51;;;;;;;14.93;8.00;;;21.70;99.90;;;;;;5136881;27;20297;-66
2021/07/30 06:48:39;;;;;;;15.77;7.53;;;21.70;99.90;;;;;;5133556;27;20543;-65
2021/07/30 06:51:26;;;;;;;20.07;8.30;;;21.80;99.90;;;;;;5132964;27;20649;-65
2021/07/30 06:54:14;;;;;;;19.37;7.50;;;21.90;99.90;;;;;;5133997;27;20233;-65
2021/07/30 06:57:02;;;;;;;22.60;8.23;;;21.90;99.90;;;;;;5133479;27;20195;-65
2021/07/30 06:59:51;;;;;;;19.27;8.47;;;22.00;99.90;;;;;;5133237;27;20581;-66
2021/07/30 07:02:38;;;;;;;20.00;9.40;;;22.10;99.90;;;;;;5132610;27;20615;-65
2021/07/30 07:05:26;;;;;;;14.70;7.87;;;22.20;99.90;;;;;;5133219;27;20201;-66
2021/07/30 07:08:13;;;;;;;11.80;6.47;;;22.30;99.90;;;;;;5133778;27;20223;-65
2021/07/30 07:11:04;;;;;;;13.13;6.53;;;22.40;99.90;;;;;;5132802;27;20199;-65
2021/07/30 07:13:52;;;;;;;14.40;7.30;;;22.40;99.90;;;;;;5132026;27;20222;-66
2021/07/30 07:16:41;;;;;;;20.60;6.87;;;22.30;99.90;;;;;;5132847;27;20923;-66
2021/07/30 07:19:29;;;;;;;12.73;6.17;;;22.40;99.90;;;;;;5136850;27;20269;-66
2021/07/30 07:22:17;;;;;;;12.20;5.73;;;22.60;99.90;;;;;;5153020;27;20209;-65
2021/07/30 07:25:05;;;;;;;15.10;6.47;;;22.70;99.90;;;;;;5153406;27;20290;-65
2021/07/30 07:27:52;;;;;;;13.83;6.40;;;22.80;99.90;;;;;;5152829;27;20923;-65
2021/07/30 07:30:40;;;;;;;12.43;6.07;;;23.00;99.90;;;;;;5152691;27;20201;-66
2021/07/30 07:33:29;;;;;;;12.90;6.40;;;23.10;99.90;;;;;;5152940;27;20224;-66
2021/07/30 07:36:17;;;;;;;16.03;6.80;;;23.20;99.90;;;;;;5152991;27;20217;-66
2021/07/30 07:39:04;;;;;;;13.20;5.80;;;23.30;99.90;;;;;;5153344;27;20652;-65
2021/07/30 07:41:52;;;;;;;15.73;6.43;;;23.50;99.90;;;;;;5152917;27;20208;-65
2021/07/30 07:44:39;;;;;;;16.50;6.33;;;23.70;99.90;;;;;;5146040;27;20205;-65
2021/07/30 07:47:27;;;;;;;12.30;5.97;;;24.00;99.90;;;;;;5132388;27;20229;-66
2021/07/30 07:50:16;;;;;;;12.17;5.63;;;24.10;99.90;;;;;;5132425;27;20202;-66
2021/07/30 07:53:12;;;;;;;11.57;5.17;;;24.00;99.90;;;;;;5132047;27;20648;-66
2021/07/30 07:56:03;;;;;;;9.90;5.50;;;24.10;99.90;;;;;;5132264;27;20556;-66
2021/07/30 07:58:51;;;;;;;11.87;5.07;;;24.20;99.90;;;;;;5132007;27;20248;-66
2021/07/30 08:01:39;;;;;;;6.77;4.87;;;24.30;99.90;;;;;;5132134;27;20198;-66
2021/07/30 08:04:28;;;;;;;9.47;5.77;;;24.40;99.90;;;;;;5132188;27;20676;-66
2021/07/30 08:07:17;;;;;;;9.53;6.67;;;24.30;99.90;;;;;;5132079;27;20238;-66
2021/07/30 08:10:08;;;;;;;10.97;6.17;;;24.10;99.90;;;;;;5132020;27;20209;-66
2021/07/30 08:12:56;;;;;;;6.78;4.95;;;24.10;99.90;;;;;;5132000;27;20203;-66
2021/07/30 08:15:43;;;;;;;7.60;5.23;;;24.20;99.90;;;;;;5132017;27;20202;-66
2021/07/30 08:18:31;;;;;;;13.17;5.83;;;24.30;99.90;;;;;;5131872;27;20194;-66
2021/07/30 08:21:18;;;;;;;8.73;5.13;;;24.50;99.90;;;;;;5150857;27;20204;-66
2021/07/30 08:24:07;;;;;;;12.98;5.88;;;24.70;99.90;;;;;;5152288;27;20194;-66
2021/07/30 08:26:55;;;;;;;11.88;4.70;;;24.90;99.90;;;;;;5151640;27;20204;-66
2021/07/30 08:29:43;;;;;;;8.45;4.80;;;24.90;99.90;;;;;;5152482;27;20564;-66
2021/07/30 08:32:31;;;;;;;7.22;4.63;;;25.00;99.90;;;;;;5152530;27;20194;-66
2021/07/30 08:35:18;;;;;;;8.13;4.70;;;25.30;99.90;;;;;;5151656;27;20759;-66
2021/07/30 08:38:06;;;;;;;7.38;4.25;;;25.10;99.90;;;;;;5152305;27;20198;-66
2021/07/30 08:40:56;;;;;;;7.35;4.75;;;25.40;99.90;;;;;;5151960;27;20206;-66
2021/07/30 08:43:43;;;;;;;7.30;4.72;;;25.30;99.90;;;;;;5151730;27;20338;-66
2021/07/30 08:46:31;;;;;;;9.70;5.15;;;25.10;99.90;;;;;;5131490;28;20217;-66
2021/07/30 08:49:19;;;;;;;14.30;5.32;;;25.10;99.90;;;;;;5131616;28;20210;-66
2021/07/30 08:52:08;;;;;;;10.82;5.00;;;25.30;99.90;;;;;;5131399;28;20201;-66
2021/07/30 08:54:55;;;;;;;9.25;5.13;;;25.50;99.90;;;;;;5131540;28;20225;-66
2021/07/30 08:57:44;;;;;;;8.38;5.38;;;25.70;99.90;;;;;;5132617;27;20218;-66
2021/07/30 09:00:32;;;;;;;9.02;5.72;;;25.80;99.90;;;;;;5134122;27;20285;-66
2021/07/30 09:03:20;;;;;;;8.52;5.57;;;26.10;99.90;;;;;;5141457;27;20621;-66
2021/07/30 09:06:17;;;;;;;11.43;5.18;;;26.30;99.90;;;;;;5148538;27;20198;-66
2021/07/30 09:09:07;;;;;;;13.32;5.20;;;26.30;99.90;;;;;;5139253;27;20209;-66
2021/07/30 09:11:55;;;;;;;9.38;5.10;;;26.30;99.90;;;;;;5144344;27;20202;-66
2021/07/30 09:14:44;;;;;;;12.05;5.22;;;26.50;99.90;;;;;;5142196;27;20206;-66
2021/07/30 09:17:40;;;;;;;9.73;5.47;;;26.40;99.90;;;;;;5132585;27;20207;-66
2021/07/30 09:20:28;;;;;;;13.27;5.80;;;26.60;99.90;;;;;;5136286;27;20271;-66
2021/07/30 09:23:18;;;;;;;7.20;4.75;;;26.60;99.90;;;;;;5146665;27;20253;-66
2021/07/30 09:26:06;;;;;;;8.50;5.22;;;26.70;99.90;;;;;;5151179;27;20194;-66
2021/07/30 09:28:55;;;;;;;8.55;5.15;;;26.80;99.90;;;;;;5132145;27;20594;-66
2021/07/30 09:31:50;;;;;;;12.98;5.78;;;27.00;99.90;;;;;;5142998;27;20612;-66
2021/07/30 09:34:39;;;;;;;10.27;5.70;;;27.10;99.90;;;;;;5151818;27;20218;-66
2021/07/30 09:37:27;;;;;;;8.60;5.95;;;27.30;99.90;;;;;;5150353;27;20623;-66
2021/07/30 09:40:21;;;;;;;9.15;4.88;;;27.60;99.90;;;;;;5135759;27;20549;-66
2021/07/30 09:43:21;;;;;;;6.68;4.57;;;27.70;99.90;;;;;;5149064;27;20982;-66
2021/07/30 09:46:12;;;;;;;5.70;4.25;;;27.50;99.90;;;;;;5143633;27;20222;-66
2021/07/30 09:49:02;;;;;;;11.38;4.40;;;27.50;99.90;;;;;;5138143;27;20561;-66
2021/07/30 09:51:49;;;;;;;7.05;4.28;;;27.30;99.90;;;;;;5153644;27;20270;-66
2021/07/30 09:54:37;;;;;;;10.93;4.85;;;27.60;99.90;;;;;;5137141;27;20217;-66
2021/07/30 09:57:25;;;;;;;5.93;4.32;;;27.80;99.90;;;;;;5137721;27;20228;-66
2021/07/30 10:00:14;;;;;;;10.98;4.05;;;27.80;99.90;;;;;;5142715;27;20198;-66
2021/07/30 10:03:03;;;;;;;8.00;5.00;;;27.60;99.90;;;;;;5143290;27;20208;-66
2021/07/30 10:05:53;;;;;;;7.05;4.00;;;27.40;99.90;;;;;;5135641;27;20205;-66
2021/07/30 10:08:41;;;;;;;8.23;4.80;;;27.40;99.90;;;;;;5142600;27;20285;-66
2021/07/30 10:11:29;;;;;;;8.63;4.15;;;27.60;99.90;;;;;;5151050;27;20209;-66
2021/07/30 10:14:17;;;;;;;8.38;4.47;;;27.70;99.90;;;;;;5154241;27;20217;-66
2021/07/30 10:17:05;;;;;;;7.65;3.55;;;27.80;99.90;;;;;;5152348;27;20326;-66
2021/07/30 10:20:20;;;;;;;8.35;4.45;;;27.70;99.90;;;;;;5135869;27;20198;-66
2021/07/30 10:23:10;;;;;;;5.85;3.90;;;27.40;99.90;;;;;;5135164;27;20198;-66
2021/07/30 10:25:59;;;;;;;5.07;3.90;;;27.60;99.90;;;;;;5149360;27;20191;-66
2021/07/30 10:28:47;;;;;;;7.55;3.92;;;27.90;99.90;;;;;;5146053;27;20205;-66
2021/07/30 10:31:51;;;;;;;6.30;3.85;;;27.90;99.90;;;;;;5136861;27;20538;-66
2021/07/30 10:34:48;;;;;;;6.45;4.03;;;27.80;99.90;;;;;;5137348;27;20322;-66
2021/07/30 10:37:36;;;;;;;6.28;4.10;;;27.70;99.90;;;;;;5139434;27;20194;-66
2021/07/30 10:40:28;;;;;;;7.18;4.18;;;27.90;99.90;;;;;;5140137;27;20330;-66
2021/07/30 10:43:16;;;;;;;5.43;4.10;;;28.30;99.90;;;;;;5137532;27;20607;-66
2021/07/30 10:46:13;;;;;;;6.05;4.07;;;28.00;99.90;;;;;;5138604;27;20214;-66
2021/07/30 10:49:01;;;;;;;7.93;4.00;;;27.70;99.90;;;;;;5142932;27;20194;-66
2021/07/30 10:51:49;;;;;;;5.40;3.78;;;27.90;99.90;;;;;;5137509;27;20309;-66
2021/07/30 10:54:49;;;;;;;4.70;3.72;;;27.80;99.90;;;;;;5136332;27;20247;-66
2021/07/30 10:57:51;;;;;;;5.28;3.83;;;28.10;99.90;;;;;;5133524;27;20642;-66
2021/07/30 11:00:51;;;;;;;7.82;4.22;;;28.30;99.90;;;;;;5132562;27;20542;-66
2021/07/30 11:04:03;;;;;;;7.10;4.25;;;28.60;99.90;;;;;;5135864;27;20237;-67
2021/07/30 11:06:55;;;;;;;13.73;4.78;;;28.60;99.90;;;;;;5142824;27;20218;-66
2021/07/30 11:09:44;;;;;;;6.65;3.90;;;28.60;99.90;;;;;;5144897;27;20206;-66
2021/07/30 11:12:33;;;;;;;7.90;4.05;;;28.70;99.90;;;;;;5137248;27;20270;-66
2021/07/30 11:15:22;;;;;;;7.15;3.78;;;28.50;99.90;;;;;;5143665;27;20214;-66
2021/07/30 11:18:15;;;;;;;5.97;4.15;;;28.80;99.90;;;;;;5140035;27;20278;-66
2021/07/30 11:21:03;;;;;;;7.20;3.90;;;28.80;99.90;;;;;;5146873;27;20193;-66
2021/07/30 11:23:51;;;;;;;7.88;4.00;;;29.10;99.90;;;;;;5134534;27;20324;-66
2021/07/30 11:26:39;;;;;;;7.88;3.67;;;28.70;99.90;;;;;;5138690;27;20346;-66
2021/07/30 11:29:27;;;;;;;6.82;4.10;;;28.70;99.00;;;;;;5140244;27;20197;-66
2021/07/30 11:32:17;;;;;;;8.10;4.15;;;28.60;99.90;;;;;;5132484;27;20190;-65
2021/07/30 11:35:09;;;;;;;8.45;4.53;;;28.60;98.80;;;;;;5143813;27;20256;-65
2021/07/30 11:38:00;;;;;;;8.55;4.25;;;28.20;99.90;;;;;;5135937;27;20220;-66
2021/07/30 11:41:04;;;;;;;6.97;4.22;;;28.70;99.90;;;;;;5135247;27;20355;-65
2021/07/30 11:43:59;;;;;;;7.65;3.92;;;29.10;99.90;;;;;;5131203;27;20281;-65
2021/07/30 11:46:57;;;;;;;5.60;4.05;;;29.20;97.90;;;;;;5132197;27;20265;-65
2021/07/30 11:49:47;;;;;;;6.43;3.70;;;29.20;97.70;;;;;;5131771;27;20895;-66
2021/07/30 11:52:37;;;;;;;8.25;3.70;;;29.30;97.40;;;;;;5130981;27;20213;-66
2021/07/30 11:55:26;;;;;;;11.32;3.95;;;29.50;98.60;;;;;;5136471;27;20234;-65
2021/07/30 11:58:13;;;;;;;5.60;3.45;;;29.50;96.40;;;;;;5144113;27;20214;-66
2021/07/30 12:01:10;;;;;;;7.97;3.90;;;29.50;95.20;;;;;;5134520;27;20250;-66
2021/07/30 12:04:08;;;;;;;5.72;3.70;;;29.40;93.60;;;;;;5133453;27;20570;-66
2021/07/30 12:06:59;;;;;;;5.47;3.92;;;28.80;96.60;;;;;;5137039;27;20194;-66
2021/07/30 12:09:47;;;;;;;5.00;3.63;;;29.10;95.60;;;;;;5132296;27;20264;-66
2021/07/30 12:12:40;;;;;;;6.13;3.90;;;29.20;95.60;;;;;;5142177;27;20205;-66
2021/07/30 12:15:27;;;;;;;6.30;3.67;;;29.60;96.60;;;;;;5142094;27;20206;-66
2021/07/30 12:18:15;;;;;;;7.53;4.05;;;29.50;94.90;;;;;;5133582;27;20213;-66
2021/07/30 12:21:06;;;;;;;7.55;3.70;;;29.50;93.60;;;;;;5148388;27;20201;-66
2021/07/30 12:24:04;;;;;;;4.30;3.30;;;29.90;95.60;;;;;;5141658;27;20194;-66
2021/07/30 12:26:52;;;;;;;4.82;3.83;;;29.80;91.10;;;;;;5136410;27;20194;-66
2021/07/30 12:29:41;;;;;;;7.28;3.47;;;30.10;91.50;;;;;;5139046;27;20303;-66
2021/07/30 12:32:37;;;;;;;4.70;3.65;;;30.00;91.70;;;;;;5144276;27;20243;-66
2021/07/30 12:35:34;;;;;;;7.50;3.70;;;30.30;89.40;;;;;;5142461;27;20255;-66
2021/07/30 12:38:23;;;;;;;6.93;3.50;;;30.30;85.90;;;;;;5140440;27;20571;-66
2021/07/30 12:41:17;;;;;;;7.97;3.67;;;30.30;88.10;;;;;;5146578;27;20190;-66
2021/07/30 12:44:12;;;;;;;5.15;3.55;;;30.00;82.50;;;;;;5134425;27;20258;-66
2021/07/30 12:47:01;;;;;;;5.10;3.53;;;29.90;83.80;;;;;;5141017;27;20587;-65
2021/07/30 12:49:49;;;;;;;8.20;3.40;;;30.10;86.00;;;;;;5137973;27;20210;-66
2021/07/30 12:52:38;;;;;;;5.35;3.70;;;30.00;84.40;;;;;;5142891;27;20202;-66
2021/07/30 12:55:26;;;;;;;5.57;3.63;;;30.00;83.90;;;;;;5143812;27;20348;-66
2021/07/30 12:58:24;;;;;;;8.18;4.03;;;29.70;87.30;;;;;;5132864;27;20233;-66
2021/07/30 13:01:13;;;;;;;5.75;3.85;;;29.80;86.70;;;;;;5144794;27;20197;-66
2021/07/30 13:04:02;;;;;;;6.38;3.58;;;30.10;83.00;;;;;;5149152;27;20884;-66
2021/07/30 13:06:51;;;;;;;7.68;3.78;;;30.10;78.90;;;;;;5134387;27;20199;-66
2021/07/30 13:09:39;;;;;;;7.28;3.90;;;30.10;83.40;;;;;;5138834;27;20206;-66
2021/07/30 13:12:27;;;;;;;5.65;3.65;;;30.00;83.50;;;;;;5142244;27;20194;-66
2021/07/30 13:15:16;;;;;;;5.03;3.60;;;30.20;78.20;;;;;;5143627;27;20218;-65
2021/07/30 13:18:03;;;;;;;8.77;3.30;;;30.40;78.30;;;;;;5136169;27;20645;-65
2021/07/30 13:20:52;;;;;;;3.58;2.97;;;30.30;77.80;;;;;;5136559;27;20198;-66
2021/07/30 13:23:40;;;;;;;7.72;3.22;;;30.10;80.00;;;;;;5140150;27;20203;-65
2021/07/30 13:26:30;;;;;;;3.88;3.28;;;29.80;75.70;;;;;;5146150;27;20575;-66
2021/07/30 13:29:19;;;;;;;4.70;3.03;;;29.80;77.40;;;;;;5138633;27;20565;-66
2021/07/30 13:32:09;;;;;;;8.07;3.10;;;30.10;80.60;;;;;;5135068;27;20657;-66
2021/07/30 13:34:58;;;;;;;7.28;3.40;;;30.30;77.50;;;;;;5141095;27;20198;-65
2021/07/30 13:37:46;;;;;;;4.60;2.97;;;30.20;75.00;;;;;;5142336;27;20891;-65
2021/07/30 13:40:34;;;;;;;6.63;3.25;;;30.30;72.30;;;;;;5141876;27;20202;-66
2021/07/30 13:43:23;;;;;;;6.00;3.15;;;30.40;69.00;;;;;;5139594;27;20199;-66
2021/07/30 13:46:11;;;;;;;4.30;3.13;;;30.60;72.90;;;;;;5146555;27;20538;-66
2021/07/30 13:49:00;;;;;;;4.90;3.45;;;30.90;72.50;;;;;;5141247;27;20210;-65
2021/07/30 13:51:48;;;;;;;5.03;3.28;;;30.50;70.70;;;;;;5146115;27;20198;-66
2021/07/30 13:54:35;;;;;;;8.15;3.45;;;30.30;70.80;;;;;;5140819;27;20886;-66
2021/07/30 13:57:23;;;;;;;7.10;3.63;;;30.20;71.00;;;;;;5140150;27;20234;-66
2021/07/30 14:00:11;;;;;;;6.85;3.22;;;30.50;72.20;;;;;;5141498;27;20202;-66
2021/07/30 14:02:59;;;;;;;3.70;2.83;;;30.90;68.10;;;;;;5143862;27;20217;-66
2021/07/30 14:05:48;;;;;;;4.65;2.80;;;31.00;72.10;;;;;;5139463;27;20262;-66
2021/07/30 14:08:36;;;;;;;7.07;3.75;;;30.80;68.70;;;;;;5142122;27;20659;-66
2021/07/30 14:11:23;;;;;;;4.00;3.20;;;30.60;69.40;;;;;;5153423;27;20559;-66
2021/07/30 14:14:11;;;;;;;6.40;3.15;;;30.50;69.40;;;;;;5134658;27;20194;-66
2021/07/30 14:16:58;;;;;;;7.03;2.97;;;30.70;69.20;;;;;;5135225;27;20589;-65
2021/07/30 14:19:46;;;;;;;4.97;3.30;;;30.80;68.60;;;;;;5143174;27;20312;-66
2021/07/30 14:22:35;;;;;;;4.07;2.97;;;30.70;66.20;;;;;;5147877;27;20665;-66
2021/07/30 14:25:23;;;;;;;9.55;3.20;;;30.50;67.90;;;;;;5148171;27;20244;-66
2021/07/30 14:28:11;;;;;;;6.85;3.40;;;30.30;69.50;;;;;;5146834;27;20243;-65
2021/07/30 14:31:00;;;;;;;6.38;2.97;;;30.30;67.30;;;;;;5152623;27;20246;-66
2021/07/30 14:33:47;;;;;;;6.50;3.20;;;30.30;67.00;;;;;;5134927;27;20198;-65